Aviation Digital Data Service (ADDS)

Output produced by METARs form (0241 UTC 26 April 2019)
found at http://www.aviationweather.gov/metar/data/
 
METAR text: YBCG 260230Z AUTO 02008KT 9999 // NCD 25/17 Q1016 RF00.0/000.0
Conditions at: YBCG (COOLANGATTA AWS , AU) observed 0230 UTC 26 April 2019
Temperature: 25.0°C (77°F)
Dewpoint: 17.0°C (63°F) [RH = 61%]
Pressure (altimeter): 30.00 inches Hg (1016.0 mb)
Winds: from the NNE (20 degrees) at 9 MPH (8 knots; 4.1 m/s)
Visibility: 6 or more miles (10+ km)
Ceiling: at least 12,000 feet AGL
Clouds: sky clear below 12,000 feet AGL
Weather: no significant weather observed at this time

METAR text: YBCG 260200Z AUTO 02007KT 9999 // NCD 25/17 Q1016 RF00.0/000.0
Conditions at: YBCG (COOLANGATTA AWS , AU) observed 0200 UTC 26 April 2019
Temperature: 25.0°C (77°F)
Dewpoint: 17.0°C (63°F) [RH = 61%]
Pressure (altimeter): 30.00 inches Hg (1016.0 mb)
Winds: from the NNE (20 degrees) at 8 MPH (7 knots; 3.6 m/s)
Visibility: 6 or more miles (10+ km)
Ceiling: at least 12,000 feet AGL
Clouds: sky clear below 12,000 feet AGL
Weather: no significant weather observed at this time

METAR text: YBCG 260130Z AUTO 01007KT 9999 // NCD 24/17 Q1017 RF00.0/000.0
Conditions at: YBCG (COOLANGATTA AWS , AU) observed 0130 UTC 26 April 2019
Temperature: 24.0°C (75°F)
Dewpoint: 17.0°C (63°F) [RH = 65%]
Pressure (altimeter): 30.03 inches Hg (1017.0 mb)
Winds: from the N (10 degrees) at 8 MPH (7 knots; 3.6 m/s)
Visibility: 6 or more miles (10+ km)
Ceiling: at least 12,000 feet AGL
Clouds: sky clear below 12,000 feet AGL
Weather: no significant weather observed at this time

METAR text: YBCG 260100Z AUTO 01007KT 9999 // NCD 24/17 Q1017 RF00.0/000.0
Conditions at: YBCG (COOLANGATTA AWS , AU) observed 0100 UTC 26 April 2019
Temperature: 24.0°C (75°F)
Dewpoint: 17.0°C (63°F) [RH = 65%]
Pressure (altimeter): 30.03 inches Hg (1017.0 mb)
Winds: from the N (10 degrees) at 8 MPH (7 knots; 3.6 m/s)
Visibility: 6 or more miles (10+ km)
Ceiling: at least 12,000 feet AGL
Clouds: sky clear below 12,000 feet AGL
Weather: no significant weather observed at this time

METAR text: YBCG 260030Z AUTO 01006KT 9999 // SCT027 24/17 Q1018 RF00.0/000.0
Conditions at: YBCG (COOLANGATTA AWS , AU) observed 0030 UTC 26 April 2019
Temperature: 24.0°C (75°F)
Dewpoint: 17.0°C (63°F) [RH = 65%]
Pressure (altimeter): 30.06 inches Hg (1018.0 mb)
Winds: from the N (10 degrees) at 7 MPH (6 knots; 3.1 m/s)
Visibility: 6 or more miles (10+ km)
Ceiling: at least 12,000 feet AGL
Clouds: scattered clouds at 2700 feet AGL
Weather: no significant weather observed at this time

METAR text: YBCG 260000Z AUTO 33003KT 9999 // SCT027 24/17 Q1018 RF00.0/000.0
Conditions at: YBCG (COOLANGATTA AWS , AU) observed 0000 UTC 26 April 2019
Temperature: 24.0°C (75°F)
Dewpoint: 17.0°C (63°F) [RH = 65%]
Pressure (altimeter): 30.06 inches Hg (1018.0 mb)
Winds: from the NNW (330 degrees) at 3 MPH (3 knots; 1.5 m/s)
Visibility: 6 or more miles (10+ km)
Ceiling: at least 12,000 feet AGL
Clouds: scattered clouds at 2700 feet AGL
Weather: no significant weather observed at this time

METAR text: YBCG 252330Z AUTO 25003KT 9999 // NCD 24/18 Q1018 RF00.0/000.0
Conditions at: YBCG (COOLANGATTA AWS , AU) observed 2330 UTC 25 April 2019
Temperature: 24.0°C (75°F)
Dewpoint: 18.0°C (64°F) [RH = 69%]
Pressure (altimeter): 30.06 inches Hg (1018.0 mb)
Winds: from the WSW (250 degrees) at 3 MPH (3 knots; 1.5 m/s)
Visibility: 6 or more miles (10+ km)
Ceiling: at least 12,000 feet AGL
Clouds: sky clear below 12,000 feet AGL
Weather: no significant weather observed at this time

METAR text: YBCG 252300Z AUTO 24004KT 9999 // SCT046 23/18 Q1018 RF00.0/000.0
Conditions at: YBCG (COOLANGATTA AWS , AU) observed 2300 UTC 25 April 2019
Temperature: 23.0°C (73°F)
Dewpoint: 18.0°C (64°F) [RH = 73%]
Pressure (altimeter): 30.06 inches Hg (1018.0 mb)
Winds: from the WSW (240 degrees) at 5 MPH (4 knots; 2.1 m/s)
Visibility: 6 or more miles (10+ km)
Ceiling: at least 12,000 feet AGL
Clouds: scattered clouds at 4600 feet AGL
Weather: no significant weather observed at this time

METAR text: YBCG 252230Z AUTO 23003KT 9999 // BKN046 22/18 Q1018 RF00.0/000.0
Conditions at: YBCG (COOLANGATTA AWS , AU) observed 2230 UTC 25 April 2019
Temperature: 22.0°C (72°F)
Dewpoint: 18.0°C (64°F) [RH = 78%]
Pressure (altimeter): 30.06 inches Hg (1018.0 mb)
Winds: from the SW (230 degrees) at 3 MPH (3 knots; 1.5 m/s)
Visibility: 6 or more miles (10+ km)
Ceiling: 4600 feet AGL
Clouds: broken clouds at 4600 feet AGL
Weather: no significant weather observed at this time

METAR text: YBCG 252200Z AUTO 19002KT 9999 // NCD 21/17 Q1018 RF00.0/000.0
Conditions at: YBCG (COOLANGATTA AWS , AU) observed 2200 UTC 25 April 2019
Temperature: 21.0°C (70°F)
Dewpoint: 17.0°C (63°F) [RH = 78%]
Pressure (altimeter): 30.06 inches Hg (1018.0 mb)
Winds: from the S (190 degrees) at 2 MPH (2 knots; 1.0 m/s)
Visibility: 6 or more miles (10+ km)
Ceiling: at least 12,000 feet AGL
Clouds: sky clear below 12,000 feet AGL
Weather: no significant weather observed at this time

METAR text: YBCG 252130Z AUTO 21003KT 9999 // NCD 19/18 Q1018 RF00.0/000.0
Conditions at: YBCG (COOLANGATTA AWS , AU) observed 2130 UTC 25 April 2019
Temperature: 19.0°C (66°F)
Dewpoint: 18.0°C (64°F) [RH = 94%]
Pressure (altimeter): 30.06 inches Hg (1018.0 mb)
Winds: from the SSW (210 degrees) at 3 MPH (3 knots; 1.5 m/s)
Visibility: 6 or more miles (10+ km)
Ceiling: at least 12,000 feet AGL
Clouds: sky clear below 12,000 feet AGL
Weather: no significant weather observed at this time

METAR text: YBCG 252100Z AUTO 22001KT 9999 // NCD 18/17 Q1018 RF00.0/000.0
Conditions at: YBCG (COOLANGATTA AWS , AU) observed 2100 UTC 25 April 2019
Temperature: 18.0°C (64°F)
Dewpoint: 17.0°C (63°F) [RH = 94%]
Pressure (altimeter): 30.06 inches Hg (1018.0 mb)
Winds: from the SW (220 degrees) at 1 MPH (1 knots; 0.5 m/s)
Visibility: 6 or more miles (10+ km)
Ceiling: at least 12,000 feet AGL
Clouds: sky clear below 12,000 feet AGL
Weather: no significant weather observed at this time

METAR text: YBCG 252030Z AUTO 21001KT 9999 // NCD 17/16 Q1017 RF00.0/000.0
Conditions at: YBCG (COOLANGATTA AWS , AU) observed 2030 UTC 25 April 2019
Temperature: 17.0°C (63°F)
Dewpoint: 16.0°C (61°F) [RH = 94%]
Pressure (altimeter): 30.03 inches Hg (1017.0 mb)
Winds: from the SSW (210 degrees) at 1 MPH (1 knots; 0.5 m/s)
Visibility: 6 or more miles (10+ km)
Ceiling: at least 12,000 feet AGL
Clouds: sky clear below 12,000 feet AGL
Weather: no significant weather observed at this time

METAR text: YBCG 252000Z AUTO 21003KT 9999 // NCD 17/16 Q1017 RF00.0/000.0
Conditions at: YBCG (COOLANGATTA AWS , AU) observed 2000 UTC 25 April 2019
Temperature: 17.0°C (63°F)
Dewpoint: 16.0°C (61°F) [RH = 94%]
Pressure (altimeter): 30.03 inches Hg (1017.0 mb)
Winds: from the SSW (210 degrees) at 3 MPH (3 knots; 1.5 m/s)
Visibility: 6 or more miles (10+ km)
Ceiling: at least 12,000 feet AGL
Clouds: sky clear below 12,000 feet AGL
Weather: no significant weather observed at this time

METAR text: YBCG 251930Z AUTO 21003KT 9999 // NCD 17/16 Q1017 RF00.0/000.0
Conditions at: YBCG (COOLANGATTA AWS , AU) observed 1930 UTC 25 April 2019
Temperature: 17.0°C (63°F)
Dewpoint: 16.0°C (61°F) [RH = 94%]
Pressure (altimeter): 30.03 inches Hg (1017.0 mb)
Winds: from the SSW (210 degrees) at 3 MPH (3 knots; 1.5 m/s)
Visibility: 6 or more miles (10+ km)
Ceiling: at least 12,000 feet AGL
Clouds: sky clear below 12,000 feet AGL
Weather: no significant weather observed at this time

METAR text: YBCG 251900Z AUTO 00000KT 9999 // SCT041 17/17 Q1017 RF00.0/000.0
Conditions at: YBCG (COOLANGATTA AWS , AU) observed 1900 UTC 25 April 2019
Temperature: 17.0°C (63°F)
Dewpoint: 17.0°C (63°F) [RH = 100%]
Pressure (altimeter): 30.03 inches Hg (1017.0 mb)
Winds: calm
Visibility: 6 or more miles (10+ km)
Ceiling: at least 12,000 feet AGL
Clouds: scattered clouds at 4100 feet AGL
Weather: no significant weather observed at this time

METAR text: YBCG 251830Z AUTO 21003KT 9999 // NCD 17/17 Q1017 RF00.0/000.0
Conditions at: YBCG (COOLANGATTA AWS , AU) observed 1830 UTC 25 April 2019
Temperature: 17.0°C (63°F)
Dewpoint: 17.0°C (63°F) [RH = 100%]
Pressure (altimeter): 30.03 inches Hg (1017.0 mb)
Winds: from the SSW (210 degrees) at 3 MPH (3 knots; 1.5 m/s)
Visibility: 6 or more miles (10+ km)
Ceiling: at least 12,000 feet AGL
Clouds: sky clear below 12,000 feet AGL
Weather: no significant weather observed at this time

METAR text: YBCG 251800Z AUTO 21001KT 9999 // SCT030 SCT042 17/17 Q1017
Conditions at: YBCG (COOLANGATTA AWS , AU) observed 1800 UTC 25 April 2019
Temperature: 17.0°C (63°F)
Dewpoint: 17.0°C (63°F) [RH = 100%]
Pressure (altimeter): 30.03 inches Hg (1017.0 mb)
Winds: from the SSW (210 degrees) at 1 MPH (1 knots; 0.5 m/s)
Visibility: 6 or more miles (10+ km)
Ceiling: at least 12,000 feet AGL
Clouds: scattered clouds at 3000 feet AGL
scattered clouds at 4200 feet AGL
Weather: no significant weather observed at this time

METAR text: YBCG 251730Z AUTO 00000KT 9999 // NCD 17/17 Q1017 RF00.0/000.0
Conditions at: YBCG (COOLANGATTA AWS , AU) observed 1730 UTC 25 April 2019
Temperature: 17.0°C (63°F)
Dewpoint: 17.0°C (63°F) [RH = 100%]
Pressure (altimeter): 30.03 inches Hg (1017.0 mb)
Winds: calm
Visibility: 6 or more miles (10+ km)
Ceiling: at least 12,000 feet AGL
Clouds: sky clear below 12,000 feet AGL
Weather: no significant weather observed at this time

METAR text: YBCG 251700Z AUTO 22003KT 9999 // NCD 17/17 Q1017 RF00.0/000.0
Conditions at: YBCG (COOLANGATTA AWS , AU) observed 1700 UTC 25 April 2019
Temperature: 17.0°C (63°F)
Dewpoint: 17.0°C (63°F) [RH = 100%]
Pressure (altimeter): 30.03 inches Hg (1017.0 mb)
Winds: from the SW (220 degrees) at 3 MPH (3 knots; 1.5 m/s)
Visibility: 6 or more miles (10+ km)
Ceiling: at least 12,000 feet AGL
Clouds: sky clear below 12,000 feet AGL
Weather: no significant weather observed at this time

METAR text: YBCG 251630Z AUTO 24003KT 9999 // SCT034 17/17 Q1018 RF00.0/000.0
Conditions at: YBCG (COOLANGATTA AWS , AU) observed 1630 UTC 25 April 2019
Temperature: 17.0°C (63°F)
Dewpoint: 17.0°C (63°F) [RH = 100%]
Pressure (altimeter): 30.06 inches Hg (1018.0 mb)
Winds: from the WSW (240 degrees) at 3 MPH (3 knots; 1.5 m/s)
Visibility: 6 or more miles (10+ km)
Ceiling: at least 12,000 feet AGL
Clouds: scattered clouds at 3400 feet AGL
Weather: no significant weather observed at this time

METAR text: YBCG 251600Z AUTO 23003KT 9999 // NCD 17/16 Q1018 RF00.0/000.0
Conditions at: YBCG (COOLANGATTA AWS , AU) observed 1600 UTC 25 April 2019
Temperature: 17.0°C (63°F)
Dewpoint: 16.0°C (61°F) [RH = 94%]
Pressure (altimeter): 30.06 inches Hg (1018.0 mb)
Winds: from the SW (230 degrees) at 3 MPH (3 knots; 1.5 m/s)
Visibility: 6 or more miles (10+ km)
Ceiling: at least 12,000 feet AGL
Clouds: sky clear below 12,000 feet AGL
Weather: no significant weather observed at this time

METAR text: YBCG 251530Z AUTO 20001KT 9999 // NCD 17/16 Q1018 RF00.0/000.0
Conditions at: YBCG (COOLANGATTA AWS , AU) observed 1530 UTC 25 April 2019
Temperature: 17.0°C (63°F)
Dewpoint: 16.0°C (61°F) [RH = 94%]
Pressure (altimeter): 30.06 inches Hg (1018.0 mb)
Winds: from the SSW (200 degrees) at 1 MPH (1 knots; 0.5 m/s)
Visibility: 6 or more miles (10+ km)
Ceiling: at least 12,000 feet AGL
Clouds: sky clear below 12,000 feet AGL
Weather: no significant weather observed at this time

METAR text: YBCG 251500Z AUTO 23004KT 9999 // NCD 18/17 Q1018 RF00.0/000.0
Conditions at: YBCG (COOLANGATTA AWS , AU) observed 1500 UTC 25 April 2019
Temperature: 18.0°C (64°F)
Dewpoint: 17.0°C (63°F) [RH = 94%]
Pressure (altimeter): 30.06 inches Hg (1018.0 mb)
Winds: from the SW (230 degrees) at 5 MPH (4 knots; 2.1 m/s)
Visibility: 6 or more miles (10+ km)
Ceiling: at least 12,000 feet AGL
Clouds: sky clear below 12,000 feet AGL
Weather: no significant weather observed at this time

METAR text: YBCG 251430Z AUTO 21003KT 9999 // NCD 17/17 Q1019 RF00.0/000.0
Conditions at: YBCG (COOLANGATTA AWS , AU) observed 1430 UTC 25 April 2019
Temperature: 17.0°C (63°F)
Dewpoint: 17.0°C (63°F) [RH = 100%]
Pressure (altimeter): 30.09 inches Hg (1019.0 mb)
Winds: from the SSW (210 degrees) at 3 MPH (3 knots; 1.5 m/s)
Visibility: 6 or more miles (10+ km)
Ceiling: at least 12,000 feet AGL
Clouds: sky clear below 12,000 feet AGL
Weather: no significant weather observed at this time

METAR text: YBCG 251400Z AUTO 00000KT 9999 // NCD 17/16 Q1019 RF00.0/000.0
Conditions at: YBCG (COOLANGATTA AWS , AU) observed 1400 UTC 25 April 2019
Temperature: 17.0°C (63°F)
Dewpoint: 16.0°C (61°F) [RH = 94%]
Pressure (altimeter): 30.09 inches Hg (1019.0 mb)
Winds: calm
Visibility: 6 or more miles (10+ km)
Ceiling: at least 12,000 feet AGL
Clouds: sky clear below 12,000 feet AGL
Weather: no significant weather observed at this time

METAR text: YBCG 251330Z AUTO 22002KT 9999 // NCD 18/17 Q1019 RF00.0/000.0
Conditions at: YBCG (COOLANGATTA AWS , AU) observed 1330 UTC 25 April 2019
Temperature: 18.0°C (64°F)
Dewpoint: 17.0°C (63°F) [RH = 94%]
Pressure (altimeter): 30.09 inches Hg (1019.0 mb)
Winds: from the SW (220 degrees) at 2 MPH (2 knots; 1.0 m/s)
Visibility: 6 or more miles (10+ km)
Ceiling: at least 12,000 feet AGL
Clouds: sky clear below 12,000 feet AGL
Weather: no significant weather observed at this time

METAR text: YBCG 251300Z AUTO 24001KT 9999 // NCD 18/17 Q1019 RF00.0/000.0
Conditions at: YBCG (COOLANGATTA AWS , AU) observed 1300 UTC 25 April 2019
Temperature: 18.0°C (64°F)
Dewpoint: 17.0°C (63°F) [RH = 94%]
Pressure (altimeter): 30.09 inches Hg (1019.0 mb)
Winds: from the WSW (240 degrees) at 1 MPH (1 knots; 0.5 m/s)
Visibility: 6 or more miles (10+ km)
Ceiling: at least 12,000 feet AGL
Clouds: sky clear below 12,000 feet AGL
Weather: no significant weather observed at this time

METAR text: YBCG 251230Z AUTO 22003KT 9999 // NCD 18/17 Q1019 RF00.0/000.0
Conditions at: YBCG (COOLANGATTA AWS , AU) observed 1230 UTC 25 April 2019
Temperature: 18.0°C (64°F)
Dewpoint: 17.0°C (63°F) [RH = 94%]
Pressure (altimeter): 30.09 inches Hg (1019.0 mb)
Winds: from the SW (220 degrees) at 3 MPH (3 knots; 1.5 m/s)
Visibility: 6 or more miles (10+ km)
Ceiling: at least 12,000 feet AGL
Clouds: sky clear below 12,000 feet AGL
Weather: no significant weather observed at this time

METAR text: YBCG 251200Z AUTO 23003KT 9999 // NCD 18/17 Q1020 RF00.0/000.0
Conditions at: YBCG (COOLANGATTA AWS , AU) observed 1200 UTC 25 April 2019
Temperature: 18.0°C (64°F)
Dewpoint: 17.0°C (63°F) [RH = 94%]
Pressure (altimeter): 30.12 inches Hg (1020.0 mb)
Winds: from the SW (230 degrees) at 3 MPH (3 knots; 1.5 m/s)
Visibility: 6 or more miles (10+ km)
Ceiling: at least 12,000 feet AGL
Clouds: sky clear below 12,000 feet AGL
Weather: no significant weather observed at this time

METAR text: YBCG 251130Z AUTO 24006KT 9999 // NCD 19/17 Q1020 RF00.0/000.0
Conditions at: YBCG (COOLANGATTA AWS , AU) observed 1130 UTC 25 April 2019
Temperature: 19.0°C (66°F)
Dewpoint: 17.0°C (63°F) [RH = 88%]
Pressure (altimeter): 30.12 inches Hg (1020.0 mb)
Winds: from the WSW (240 degrees) at 7 MPH (6 knots; 3.1 m/s)
Visibility: 6 or more miles (10+ km)
Ceiling: at least 12,000 feet AGL
Clouds: sky clear below 12,000 feet AGL
Weather: no significant weather observed at this time

METAR text: YBCG 251100Z AUTO 23001KT 9999 // SCT052 19/17 Q1019 RF00.0/000.0
Conditions at: YBCG (COOLANGATTA AWS , AU) observed 1100 UTC 25 April 2019
Temperature: 19.0°C (66°F)
Dewpoint: 17.0°C (63°F) [RH = 88%]
Pressure (altimeter): 30.09 inches Hg (1019.0 mb)
Winds: from the SW (230 degrees) at 1 MPH (1 knots; 0.5 m/s)
Visibility: 6 or more miles (10+ km)
Ceiling: at least 12,000 feet AGL
Clouds: scattered clouds at 5200 feet AGL
Weather: no significant weather observed at this time

METAR text: YBCG 251030Z AUTO 24004KT 9999 // OVC050 19/18 Q1020 RF00.0/000.0
Conditions at: YBCG (COOLANGATTA AWS , AU) observed 1030 UTC 25 April 2019
Temperature: 19.0°C (66°F)
Dewpoint: 18.0°C (64°F) [RH = 94%]
Pressure (altimeter): 30.12 inches Hg (1020.0 mb)
Winds: from the WSW (240 degrees) at 5 MPH (4 knots; 2.1 m/s)
Visibility: 6 or more miles (10+ km)
Ceiling: 5000 feet AGL
Clouds: overcast cloud deck at 5000 feet AGL
Weather: no significant weather observed at this time

METAR text: YBCG 251000Z AUTO 24006KT 9999 // SCT033 OVC046 19/18 Q1020
Conditions at: YBCG (COOLANGATTA AWS , AU) observed 1000 UTC 25 April 2019
Temperature: 19.0°C (66°F)
Dewpoint: 18.0°C (64°F) [RH = 94%]
Pressure (altimeter): 30.12 inches Hg (1020.0 mb)
Winds: from the WSW (240 degrees) at 7 MPH (6 knots; 3.1 m/s)
Visibility: 6 or more miles (10+ km)
Ceiling: 4600 feet AGL
Clouds: scattered clouds at 3300 feet AGL
overcast cloud deck at 4600 feet AGL
Weather: no significant weather observed at this time

METAR text: YBCG 250930Z AUTO 24006KT 9999 // SCT033 BKN044 19/18 Q1019
Conditions at: YBCG (COOLANGATTA AWS , AU) observed 0930 UTC 25 April 2019
Temperature: 19.0°C (66°F)
Dewpoint: 18.0°C (64°F) [RH = 94%]
Pressure (altimeter): 30.09 inches Hg (1019.0 mb)
Winds: from the WSW (240 degrees) at 7 MPH (6 knots; 3.1 m/s)
Visibility: 6 or more miles (10+ km)
Ceiling: 4400 feet AGL
Clouds: scattered clouds at 3300 feet AGL
broken clouds at 4400 feet AGL
Weather: no significant weather observed at this time

METAR text: YBCG 250900Z AUTO 24007KT 9999 // SCT032 SCT041 20/18 Q1019
Conditions at: YBCG (COOLANGATTA AWS , AU) observed 0900 UTC 25 April 2019
Temperature: 20.0°C (68°F)
Dewpoint: 18.0°C (64°F) [RH = 88%]
Pressure (altimeter): 30.09 inches Hg (1019.0 mb)
Winds: from the WSW (240 degrees) at 8 MPH (7 knots; 3.6 m/s)
Visibility: 6 or more miles (10+ km)
Ceiling: at least 12,000 feet AGL
Clouds: scattered clouds at 3200 feet AGL
scattered clouds at 4100 feet AGL
Weather: no significant weather observed at this time

METAR text: YBCG 250830Z AUTO 24004KT 9999 // SCT032 20/18 Q1019 RF00.0/000.0
Conditions at: YBCG (COOLANGATTA AWS , AU) observed 0830 UTC 25 April 2019
Temperature: 20.0°C (68°F)
Dewpoint: 18.0°C (64°F) [RH = 88%]
Pressure (altimeter): 30.09 inches Hg (1019.0 mb)
Winds: from the WSW (240 degrees) at 5 MPH (4 knots; 2.1 m/s)
Visibility: 6 or more miles (10+ km)
Ceiling: at least 12,000 feet AGL
Clouds: scattered clouds at 3200 feet AGL
Weather: no significant weather observed at this time

METAR text: YBCG 250800Z AUTO 20003KT 9999 // SCT052 21/18 Q1018 RF00.0/000.0
Conditions at: YBCG (COOLANGATTA AWS , AU) observed 0800 UTC 25 April 2019
Temperature: 21.0°C (70°F)
Dewpoint: 18.0°C (64°F) [RH = 83%]
Pressure (altimeter): 30.06 inches Hg (1018.0 mb)
Winds: from the SSW (200 degrees) at 3 MPH (3 knots; 1.5 m/s)
Visibility: 6 or more miles (10+ km)
Ceiling: at least 12,000 feet AGL
Clouds: scattered clouds at 5200 feet AGL
Weather: no significant weather observed at this time

METAR text: YBCG 250730Z AUTO 11005KT 9999 // BKN052 21/16 Q1018 RF00.0/000.0
Conditions at: YBCG (COOLANGATTA AWS , AU) observed 0730 UTC 25 April 2019
Temperature: 21.0°C (70°F)
Dewpoint: 16.0°C (61°F) [RH = 73%]
Pressure (altimeter): 30.06 inches Hg (1018.0 mb)
Winds: from the ESE (110 degrees) at 6 MPH (5 knots; 2.6 m/s)
Visibility: 6 or more miles (10+ km)
Ceiling: 5200 feet AGL
Clouds: broken clouds at 5200 feet AGL
Weather: no significant weather observed at this time

METAR text: YBCG 250700Z AUTO 11005KT 9999 // SCT031 23/16 Q1018 RF00.0/000.0
Conditions at: YBCG (COOLANGATTA AWS , AU) observed 0700 UTC 25 April 2019
Temperature: 23.0°C (73°F)
Dewpoint: 16.0°C (61°F) [RH = 65%]
Pressure (altimeter): 30.06 inches Hg (1018.0 mb)
Winds: from the ESE (110 degrees) at 6 MPH (5 knots; 2.6 m/s)
Visibility: 6 or more miles (10+ km)
Ceiling: at least 12,000 feet AGL
Clouds: scattered clouds at 3100 feet AGL
Weather: no significant weather observed at this time

METAR text: YBCG 250630Z AUTO 10007KT 9999 // SCT031 BKN069 23/16 Q1018
Conditions at: YBCG (COOLANGATTA AWS , AU) observed 0630 UTC 25 April 2019
Temperature: 23.0°C (73°F)
Dewpoint: 16.0°C (61°F) [RH = 65%]
Pressure (altimeter): 30.06 inches Hg (1018.0 mb)
Winds: from the E (100 degrees) at 8 MPH (7 knots; 3.6 m/s)
Visibility: 6 or more miles (10+ km)
Ceiling: 6900 feet AGL
Clouds: scattered clouds at 3100 feet AGL
broken clouds at 6900 feet AGL
Weather: no significant weather observed at this time

METAR text: YBCG 250600Z AUTO 21005KT 9999 // SCT024 SCT029 SCT037 23/18 Q1018
Conditions at: YBCG (COOLANGATTA AWS , AU) observed 0600 UTC 25 April 2019
Temperature: 23.0°C (73°F)
Dewpoint: 18.0°C (64°F) [RH = 73%]
Pressure (altimeter): 30.06 inches Hg (1018.0 mb)
Winds: from the SSW (210 degrees) at 6 MPH (5 knots; 2.6 m/s)
Visibility: 6 or more miles (10+ km)
Ceiling: at least 12,000 feet AGL
Clouds: scattered clouds at 2400 feet AGL
scattered clouds at 2900 feet AGL
scattered clouds at 3700 feet AGL
Weather: no significant weather observed at this time

METAR text: YBCG 250530Z AUTO 23003KT 9999 // SCT024 BKN031 OVC040 23/18 Q1018
Conditions at: YBCG (COOLANGATTA AWS , AU) observed 0530 UTC 25 April 2019
Temperature: 23.0°C (73°F)
Dewpoint: 18.0°C (64°F) [RH = 73%]
Pressure (altimeter): 30.06 inches Hg (1018.0 mb)
Winds: from the SW (230 degrees) at 3 MPH (3 knots; 1.5 m/s)
Visibility: 6 or more miles (10+ km)
Ceiling: 3100 feet AGL
Clouds: scattered clouds at 2400 feet AGL
broken clouds at 3100 feet AGL
overcast cloud deck at 4000 feet AGL
Weather: no significant weather observed at this time

METAR text: YBCG 250500Z AUTO 24005KT 9999 // SCT028 SCT032 SCT044 23/18 Q1018
Conditions at: YBCG (COOLANGATTA AWS , AU) observed 0500 UTC 25 April 2019
Temperature: 23.0°C (73°F)
Dewpoint: 18.0°C (64°F) [RH = 73%]
Pressure (altimeter): 30.06 inches Hg (1018.0 mb)
Winds: from the WSW (240 degrees) at 6 MPH (5 knots; 2.6 m/s)
Visibility: 6 or more miles (10+ km)
Ceiling: at least 12,000 feet AGL
Clouds: scattered clouds at 2800 feet AGL
scattered clouds at 3200 feet AGL
scattered clouds at 4400 feet AGL
Weather: no significant weather observed at this time

METAR text: YBCG 250430Z AUTO 24006KT 9999 // BKN028 BKN037 BKN050 23/18 Q1018
Conditions at: YBCG (COOLANGATTA AWS , AU) observed 0430 UTC 25 April 2019
Temperature: 23.0°C (73°F)
Dewpoint: 18.0°C (64°F) [RH = 73%]
Pressure (altimeter): 30.06 inches Hg (1018.0 mb)
Winds: from the WSW (240 degrees) at 7 MPH (6 knots; 3.1 m/s)
Visibility: 6 or more miles (10+ km)
Ceiling: 2800 feet AGL
Clouds: broken clouds at 2800 feet AGL
broken clouds at 3700 feet AGL
broken clouds at 5000 feet AGL
Weather: no significant weather observed at this time

METAR text: YBCG 250400Z AUTO 27006KT 9999 // SCT028 SCT053 OVC066 23/18 Q1018
Conditions at: YBCG (COOLANGATTA AWS , AU) observed 0400 UTC 25 April 2019
Temperature: 23.0°C (73°F)
Dewpoint: 18.0°C (64°F) [RH = 73%]
Pressure (altimeter): 30.06 inches Hg (1018.0 mb)
Winds: from the W (270 degrees) at 7 MPH (6 knots; 3.1 m/s)
Visibility: 6 or more miles (10+ km)
Ceiling: 6600 feet AGL
Clouds: scattered clouds at 2800 feet AGL
scattered clouds at 5300 feet AGL
overcast cloud deck at 6600 feet AGL
Weather: no significant weather observed at this time

METAR text: YBCG 250330Z AUTO 26007KT 9999 // SCT023 BKN027 BKN033 22/18 Q1018
Conditions at: YBCG (COOLANGATTA AWS , AU) observed 0330 UTC 25 April 2019
Temperature: 22.0°C (72°F)
Dewpoint: 18.0°C (64°F) [RH = 78%]
Pressure (altimeter): 30.06 inches Hg (1018.0 mb)
Winds: from the W (260 degrees) at 8 MPH (7 knots; 3.6 m/s)
Visibility: 6 or more miles (10+ km)
Ceiling: 2700 feet AGL
Clouds: scattered clouds at 2300 feet AGL
broken clouds at 2700 feet AGL
broken clouds at 3300 feet AGL
Weather: no significant weather observed at this time

METAR text: YBCG 250300Z AUTO 13005KT 9999 // BKN025 OVC049 23/18 Q1019
Conditions at: YBCG (COOLANGATTA AWS , AU) observed 0300 UTC 25 April 2019
Temperature: 23.0°C (73°F)
Dewpoint: 18.0°C (64°F) [RH = 73%]
Pressure (altimeter): 30.09 inches Hg (1019.0 mb)
Winds: from the SE (130 degrees) at 6 MPH (5 knots; 2.6 m/s)
Visibility: 6 or more miles (10+ km)
Ceiling: 2500 feet AGL
Clouds: broken clouds at 2500 feet AGL
overcast cloud deck at 4900 feet AGL
Weather: no significant weather observed at this time

METAR text: YBCG 250230Z AUTO 08006KT 9999 // SCT025 BKN037 OVC043 24/17 Q1019
Conditions at: YBCG (COOLANGATTA AWS , AU) observed 0230 UTC 25 April 2019
Temperature: 24.0°C (75°F)
Dewpoint: 17.0°C (63°F) [RH = 65%]
Pressure (altimeter): 30.09 inches Hg (1019.0 mb)
Winds: from the E (80 degrees) at 7 MPH (6 knots; 3.1 m/s)
Visibility: 6 or more miles (10+ km)
Ceiling: 3700 feet AGL
Clouds: scattered clouds at 2500 feet AGL
broken clouds at 3700 feet AGL
overcast cloud deck at 4300 feet AGL
Weather: no significant weather observed at this time

METAR text: YBCG 250200Z AUTO 09007KT 9999 // BKN025 BKN029 OVC035 23/17 Q1019
Conditions at: YBCG (COOLANGATTA AWS , AU) observed 0200 UTC 25 April 2019
Temperature: 23.0°C (73°F)
Dewpoint: 17.0°C (63°F) [RH = 69%]
Pressure (altimeter): 30.09 inches Hg (1019.0 mb)
Winds: from the E (90 degrees) at 8 MPH (7 knots; 3.6 m/s)
Visibility: 6 or more miles (10+ km)
Ceiling: 2500 feet AGL
Clouds: broken clouds at 2500 feet AGL
broken clouds at 2900 feet AGL
overcast cloud deck at 3500 feet AGL
Weather: no significant weather observed at this time

METAR text: YBCG 250130Z AUTO 13005KT 9999 // SCT027 BKN033 OVC040 23/18 Q1020
Conditions at: YBCG (COOLANGATTA AWS , AU) observed 0130 UTC 25 April 2019
Temperature: 23.0°C (73°F)
Dewpoint: 18.0°C (64°F) [RH = 73%]
Pressure (altimeter): 30.12 inches Hg (1020.0 mb)
Winds: from the SE (130 degrees) at 6 MPH (5 knots; 2.6 m/s)
Visibility: 6 or more miles (10+ km)
Ceiling: 3300 feet AGL
Clouds: scattered clouds at 2700 feet AGL
broken clouds at 3300 feet AGL
overcast cloud deck at 4000 feet AGL
Weather: no significant weather observed at this time

METAR text: YBCG 250100Z AUTO 17008KT 9999 // SCT027 BKN038 OVC044 24/17 Q1020
Conditions at: YBCG (COOLANGATTA AWS , AU) observed 0100 UTC 25 April 2019
Temperature: 24.0°C (75°F)
Dewpoint: 17.0°C (63°F) [RH = 65%]
Pressure (altimeter): 30.12 inches Hg (1020.0 mb)
Winds: from the S (170 degrees) at 9 MPH (8 knots; 4.1 m/s)
Visibility: 6 or more miles (10+ km)
Ceiling: 3800 feet AGL
Clouds: scattered clouds at 2700 feet AGL
broken clouds at 3800 feet AGL
overcast cloud deck at 4400 feet AGL
Weather: no significant weather observed at this time

METAR text: YBCG 250030Z AUTO 18007KT 140V230 9999 // SCT027 SCT036 24/17 Q1020
Conditions at: YBCG (COOLANGATTA AWS , AU) observed 0030 UTC 25 April 2019
Temperature: 24.0°C (75°F)
Dewpoint: 17.0°C (63°F) [RH = 65%]
Pressure (altimeter): 30.12 inches Hg (1020.0 mb)
Winds: from the S (180 degrees) at 8 MPH (7 knots; 3.6 m/s)
Visibility: 6 or more miles (10+ km)
Ceiling: at least 12,000 feet AGL
Clouds: scattered clouds at 2700 feet AGL
scattered clouds at 3600 feet AGL
Weather: no significant weather observed at this time

METAR text: YBCG 250000Z AUTO 20008KT 9999 // BKN052 24/17 Q1021 RF00.0/000.0
Conditions at: YBCG (COOLANGATTA AWS , AU) observed 0000 UTC 25 April 2019
Temperature: 24.0°C (75°F)
Dewpoint: 17.0°C (63°F) [RH = 65%]
Pressure (altimeter): 30.15 inches Hg (1021.0 mb)
Winds: from the SSW (200 degrees) at 9 MPH (8 knots; 4.1 m/s)
Visibility: 6 or more miles (10+ km)
Ceiling: 5200 feet AGL
Clouds: broken clouds at 5200 feet AGL
Weather: no significant weather observed at this time

METAR text: YBCG 242330Z AUTO 20007KT 9999 // BKN029 BKN038 BKN046 22/16 Q1021
Conditions at: YBCG (COOLANGATTA AWS , AU) observed 2330 UTC 24 April 2019
Temperature: 22.0°C (72°F)
Dewpoint: 16.0°C (61°F) [RH = 69%]
Pressure (altimeter): 30.15 inches Hg (1021.0 mb)
Winds: from the SSW (200 degrees) at 8 MPH (7 knots; 3.6 m/s)
Visibility: 6 or more miles (10+ km)
Ceiling: 2900 feet AGL
Clouds: broken clouds at 2900 feet AGL
broken clouds at 3800 feet AGL
broken clouds at 4600 feet AGL
Weather: no significant weather observed at this time

METAR text: YBCG 242300Z AUTO 17009KT 9999 // NCD 23/17 Q1021 RF00.0/000.0
Conditions at: YBCG (COOLANGATTA AWS , AU) observed 2300 UTC 24 April 2019
Temperature: 23.0°C (73°F)
Dewpoint: 17.0°C (63°F) [RH = 69%]
Pressure (altimeter): 30.15 inches Hg (1021.0 mb)
Winds: from the S (170 degrees) at 10 MPH (9 knots; 4.6 m/s)
Visibility: 6 or more miles (10+ km)
Ceiling: at least 12,000 feet AGL
Clouds: sky clear below 12,000 feet AGL
Weather: no significant weather observed at this time

METAR text: YBCG 242230Z AUTO 18006KT 9999 // BKN059 22/17 Q1021 RF00.0/000.0
Conditions at: YBCG (COOLANGATTA AWS , AU) observed 2230 UTC 24 April 2019
Temperature: 22.0°C (72°F)
Dewpoint: 17.0°C (63°F) [RH = 73%]
Pressure (altimeter): 30.15 inches Hg (1021.0 mb)
Winds: from the S (180 degrees) at 7 MPH (6 knots; 3.1 m/s)
Visibility: 6 or more miles (10+ km)
Ceiling: 5900 feet AGL
Clouds: broken clouds at 5900 feet AGL
Weather: no significant weather observed at this time

METAR text: YBCG 242200Z AUTO 19006KT 9999 // NCD 20/16 Q1021 RF00.0/000.0
Conditions at: YBCG (COOLANGATTA AWS , AU) observed 2200 UTC 24 April 2019
Temperature: 20.0°C (68°F)
Dewpoint: 16.0°C (61°F) [RH = 78%]
Pressure (altimeter): 30.15 inches Hg (1021.0 mb)
Winds: from the S (190 degrees) at 7 MPH (6 knots; 3.1 m/s)
Visibility: 6 or more miles (10+ km)
Ceiling: at least 12,000 feet AGL
Clouds: sky clear below 12,000 feet AGL
Weather: no significant weather observed at this time

METAR text: YBCG 242130Z AUTO 19005KT 9999 // BKN055 20/17 Q1020 RF00.0/000.0
Conditions at: YBCG (COOLANGATTA AWS , AU) observed 2130 UTC 24 April 2019
Temperature: 20.0°C (68°F)
Dewpoint: 17.0°C (63°F) [RH = 83%]
Pressure (altimeter): 30.12 inches Hg (1020.0 mb)
Winds: from the S (190 degrees) at 6 MPH (5 knots; 2.6 m/s)
Visibility: 6 or more miles (10+ km)
Ceiling: 5500 feet AGL
Clouds: broken clouds at 5500 feet AGL
Weather: no significant weather observed at this time

METAR text: YBCG 242100Z AUTO 20005KT 9999 // BKN051 19/16 Q1020 RF00.0/000.0
Conditions at: YBCG (COOLANGATTA AWS , AU) observed 2100 UTC 24 April 2019
Temperature: 19.0°C (66°F)
Dewpoint: 16.0°C (61°F) [RH = 83%]
Pressure (altimeter): 30.12 inches Hg (1020.0 mb)
Winds: from the SSW (200 degrees) at 6 MPH (5 knots; 2.6 m/s)
Visibility: 6 or more miles (10+ km)
Ceiling: 5100 feet AGL
Clouds: broken clouds at 5100 feet AGL
Weather: no significant weather observed at this time

METAR text: YBCG 242030Z AUTO 21006KT 9999 // OVC047 19/17 Q1020 RF00.0/000.0
Conditions at: YBCG (COOLANGATTA AWS , AU) observed 2030 UTC 24 April 2019
Temperature: 19.0°C (66°F)
Dewpoint: 17.0°C (63°F) [RH = 88%]
Pressure (altimeter): 30.12 inches Hg (1020.0 mb)
Winds: from the SSW (210 degrees) at 7 MPH (6 knots; 3.1 m/s)
Visibility: 6 or more miles (10+ km)
Ceiling: 4700 feet AGL
Clouds: overcast cloud deck at 4700 feet AGL
Weather: no significant weather observed at this time

METAR text: YBCG 242000Z AUTO 21006KT 9999 // OVC043 OVC049 19/16 Q1020
Conditions at: YBCG (COOLANGATTA AWS , AU) observed 2000 UTC 24 April 2019
Temperature: 19.0°C (66°F)
Dewpoint: 16.0°C (61°F) [RH = 83%]
Pressure (altimeter): 30.12 inches Hg (1020.0 mb)
Winds: from the SSW (210 degrees) at 7 MPH (6 knots; 3.1 m/s)
Visibility: 6 or more miles (10+ km)
Ceiling: 4300 feet AGL
Clouds: overcast cloud deck at 4300 feet AGL
overcast cloud deck at 4900 feet AGL
Weather: no significant weather observed at this time

METAR text: YBCG 241930Z AUTO 18005KT 9999 // SCT035 BKN042 18/16 Q1020
Conditions at: YBCG (COOLANGATTA AWS , AU) observed 1930 UTC 24 April 2019
Temperature: 18.0°C (64°F)
Dewpoint: 16.0°C (61°F) [RH = 88%]
Pressure (altimeter): 30.12 inches Hg (1020.0 mb)
Winds: from the S (180 degrees) at 6 MPH (5 knots; 2.6 m/s)
Visibility: 6 or more miles (10+ km)
Ceiling: 4200 feet AGL
Clouds: scattered clouds at 3500 feet AGL
broken clouds at 4200 feet AGL
Weather: no significant weather observed at this time

METAR text: YBCG 241900Z AUTO 16005KT 9999 // NCD 18/16 Q1020 RF00.0/000.0
Conditions at: YBCG (COOLANGATTA AWS , AU) observed 1900 UTC 24 April 2019
Temperature: 18.0°C (64°F)
Dewpoint: 16.0°C (61°F) [RH = 88%]
Pressure (altimeter): 30.12 inches Hg (1020.0 mb)
Winds: from the SSE (160 degrees) at 6 MPH (5 knots; 2.6 m/s)
Visibility: 6 or more miles (10+ km)
Ceiling: at least 12,000 feet AGL
Clouds: sky clear below 12,000 feet AGL
Weather: no significant weather observed at this time

METAR text: YBCG 241830Z AUTO 19006KT 9999 // NCD 18/16 Q1020 RF00.0/000.0
Conditions at: YBCG (COOLANGATTA AWS , AU) observed 1830 UTC 24 April 2019
Temperature: 18.0°C (64°F)
Dewpoint: 16.0°C (61°F) [RH = 88%]
Pressure (altimeter): 30.12 inches Hg (1020.0 mb)
Winds: from the S (190 degrees) at 7 MPH (6 knots; 3.1 m/s)
Visibility: 6 or more miles (10+ km)
Ceiling: at least 12,000 feet AGL
Clouds: sky clear below 12,000 feet AGL
Weather: no significant weather observed at this time

METAR text: YBCG 241800Z AUTO 18005KT 9999 // NCD 17/16 Q1019
Conditions at: YBCG (COOLANGATTA AWS , AU) observed 1800 UTC 24 April 2019
Temperature: 17.0°C (63°F)
Dewpoint: 16.0°C (61°F) [RH = 94%]
Pressure (altimeter): 30.09 inches Hg (1019.0 mb)
Winds: from the S (180 degrees) at 6 MPH (5 knots; 2.6 m/s)
Visibility: 6 or more miles (10+ km)
Ceiling: at least 12,000 feet AGL
Clouds: sky clear below 12,000 feet AGL
Weather: no significant weather observed at this time

METAR text: YBCG 241730Z AUTO 15001KT 9999 // SCT045 SCT075 18/17 Q1020
Conditions at: YBCG (COOLANGATTA AWS , AU) observed 1730 UTC 24 April 2019
Temperature: 18.0°C (64°F)
Dewpoint: 17.0°C (63°F) [RH = 94%]
Pressure (altimeter): 30.12 inches Hg (1020.0 mb)
Winds: from the SSE (150 degrees) at 1 MPH (1 knots; 0.5 m/s)
Visibility: 6 or more miles (10+ km)
Ceiling: at least 12,000 feet AGL
Clouds: scattered clouds at 4500 feet AGL
scattered clouds at 7500 feet AGL
Weather: no significant weather observed at this time

METAR text: YBCG 241700Z AUTO 15001KT 9999 // OVC075 18/17 Q1020 RF00.0/000.0
Conditions at: YBCG (COOLANGATTA AWS , AU) observed 1700 UTC 24 April 2019
Temperature: 18.0°C (64°F)
Dewpoint: 17.0°C (63°F) [RH = 94%]
Pressure (altimeter): 30.12 inches Hg (1020.0 mb)
Winds: from the SSE (150 degrees) at 1 MPH (1 knots; 0.5 m/s)
Visibility: 6 or more miles (10+ km)
Ceiling: 7500 feet AGL
Clouds: overcast cloud deck at 7500 feet AGL
Weather: no significant weather observed at this time

METAR text: YBCG 241630Z AUTO 00000KT 9999 // BKN077 17/17 Q1020 RF00.0/000.0
Conditions at: YBCG (COOLANGATTA AWS , AU) observed 1630 UTC 24 April 2019
Temperature: 17.0°C (63°F)
Dewpoint: 17.0°C (63°F) [RH = 100%]
Pressure (altimeter): 30.12 inches Hg (1020.0 mb)
Winds: calm
Visibility: 6 or more miles (10+ km)
Ceiling: 7700 feet AGL
Clouds: broken clouds at 7700 feet AGL
Weather: no significant weather observed at this time

METAR text: YBCG 241600Z AUTO 18001KT 9999 // NCD 17/16 Q1020 RF00.0/000.0
Conditions at: YBCG (COOLANGATTA AWS , AU) observed 1600 UTC 24 April 2019
Temperature: 17.0°C (63°F)
Dewpoint: 16.0°C (61°F) [RH = 94%]
Pressure (altimeter): 30.12 inches Hg (1020.0 mb)
Winds: from the S (180 degrees) at 1 MPH (1 knots; 0.5 m/s)
Visibility: 6 or more miles (10+ km)
Ceiling: at least 12,000 feet AGL
Clouds: sky clear below 12,000 feet AGL
Weather: no significant weather observed at this time

METAR text: YBCG 241530Z AUTO 21003KT 9999 // NCD 17/16 Q1020 RF00.0/000.0
Conditions at: YBCG (COOLANGATTA AWS , AU) observed 1530 UTC 24 April 2019
Temperature: 17.0°C (63°F)
Dewpoint: 16.0°C (61°F) [RH = 94%]
Pressure (altimeter): 30.12 inches Hg (1020.0 mb)
Winds: from the SSW (210 degrees) at 3 MPH (3 knots; 1.5 m/s)
Visibility: 6 or more miles (10+ km)
Ceiling: at least 12,000 feet AGL
Clouds: sky clear below 12,000 feet AGL
Weather: no significant weather observed at this time

METAR text: YBCG 241500Z AUTO 22003KT 9999 // NCD 17/16 Q1020 RF00.0/000.0
Conditions at: YBCG (COOLANGATTA AWS , AU) observed 1500 UTC 24 April 2019
Temperature: 17.0°C (63°F)
Dewpoint: 16.0°C (61°F) [RH = 94%]
Pressure (altimeter): 30.12 inches Hg (1020.0 mb)
Winds: from the SW (220 degrees) at 3 MPH (3 knots; 1.5 m/s)
Visibility: 6 or more miles (10+ km)
Ceiling: at least 12,000 feet AGL
Clouds: sky clear below 12,000 feet AGL
Weather: no significant weather observed at this time

Forecast for: YBCG (COOLANGATTA AWS , AU)
Text: TAF YBCG 252305Z 2600/2624 22005KT 9999 SCT030 SCT050
Forecast period: 0000 to 0200 UTC 26 April 2019
Forecast type: FROM: standard forecast or significant change
Winds: from the SW (220 degrees) at 6 MPH (5 knots; 2.6 m/s)
Visibility: 6 or more miles 10+ km)
Ceiling: at least 12,000 feet AGL
Clouds: scattered clouds at 3000 feet AGL
scattered clouds at 5000 feet AGL
Weather: no significant weather forecast for this period
Text: FM260200 02012KT 9999 SCT030
Forecast period: 0200 to 0900 UTC 26 April 2019
Forecast type: FROM: standard forecast or significant change
Winds: from the NNE (20 degrees) at 14 MPH (12 knots; 6.2 m/s)
Visibility: 6 or more miles 10+ km)
Ceiling: at least 12,000 feet AGL
Clouds: scattered clouds at 3000 feet AGL
Weather: no significant weather forecast for this period
Text: FM260900 33005KT CAVOK
Forecast period: 0900 to 2200 UTC 26 April 2019
Forecast type: FROM: standard forecast or significant change
Winds: from the NNW (330 degrees) at 6 MPH (5 knots; 2.6 m/s)
Visibility: 6 or more miles 10+ km)
Ceiling: unknown
Clouds: missing
Weather: NSW  (no significant weather)
Text: FM262200 18014KT 9999 FEW030
Forecast period: 2200 UTC 26 April 2019 to 0000 UTC 27 April 2019
Forecast type: FROM: standard forecast or significant change
Winds: from the S (180 degrees) at 16 MPH (14 knots; 7.2 m/s)
Visibility: 6 or more miles 10+ km)
Ceiling: at least 12,000 feet AGL
Clouds: few clouds at 3000 feet AGL
Weather: no significant weather forecast for this period